Tolovana Park, Oregon
Current Conditions -  °F | °C
As of 4:55 AM on Thursday 23 Oct 2014 (Local Time) from KAST Reporting Station
Light Rain Light Rain  
Wind Chill: 55°   Ceiling: 5500
Heat Index: 55°   Visibility: 6mi
Dew Point: 51°   Wind: 8mph
Humidity: 86%   Direction: 200°SSW
Pressure: 29.72"   Gusts: NA
Location:  45.87°N, 123.96°W
Report Text: KAST 231155Z AUTO 20007KT 6SM -RA BR OVC055 13/11 A2972 RMK AO2 RAB03 SLP063 P0006 60010 70123 T01280106 10133 20117 53007
Loading
Personal Weather Stations






























Interactive Weather Map
Tropical Storm Tracking
New forecast layout! Learn more

10-Day Weather Forecast

Advertisements
Track Severe Weather on mobile